Weather observations for the past three days for
Bozeman, Gallatin Field
Imperial (Metric)
Date Time (mdt) Wind (mph) Vis. (mi.) Weather Sky Cond. Temperature (ºF) Relative Humidity Wind Chill (°F) Heat Index (°F) Pressure Precipitation (in)
Air Dwpt 6 hour altimeter (in) sea level (mb) 1 hr 3 hr 6 hr
Max. Min.
10 09:56 Calm 10.00 Fair CLR 55.9 36 47% 30.15 1020.1
10 08:56 Calm 10.00 Fair CLR 51.1 36 56% 30.17 1020.3
10 07:56 E 3 10.00 Fair CLR 46.9 34 61% 30.18 1020.5
10 06:56 SE 7 10.00 Fair CLR 37.9 30.9 76% 33 30.18 1021.4
10 05:56 SE 3 10.00 Fair CLR 39 30 45 33.1 70% 30.18 1021.1
10 04:56 E 6 10.00 Fair CLR 35.1 30 82% 31 30.18 1021.4
10 03:56 S 8 10.00 Fair CLR 39.9 30 68% 35 30.18 1021.2
10 02:56 S 6 10.00 Fair CLR 39 30.9 73% 35 30.18 1021.1
10 01:56 SE 9 10.00 Fair CLR 41 30.9 67% 36 30.17 1021.0
10 00:56 SE 7 10.00 Fair CLR 41 32 70% 37 30.16 1020.7
09 23:56 SE 8 10.00 Fair CLR 44.1 33.1 64.9 44.1 65% 40 30.15 1019.9
09 22:56 S 8 10.00 Fair CLR 52 32 47% 30.15 1019.3
09 21:56 SE 8 10.00 Fair CLR 48 33.1 56% 45 30.13 1019.4
09 19:56 SE 5 10.00 A Few Clouds FEW110 63 30 29% 30.1 1017.5
09 18:56 N 6 10.00 A Few Clouds FEW110 64 28.9 27% 30.1 1018.0
09 17:56 Vrbl 5 10.00 Fair CLR 64.9 28 64.9 59 25% 30.1 1017.7
09 16:56 SE 5 10.00 Fair CLR 64 27 25% 30.1 1018.4
09 15:56 N 10 10.00 Overcast OVC110 62.1 30 30% 30.11 1018.5
09 14:56 N 13 G 18 10.00 Mostly Cloudy BKN110 63 30.9 30% 30.11 1018.5
09 13:56 Vrbl 5 10.00 Overcast BKN085 OVC100 61 27 27% 30.1 1017.8
09 12:56 W 7 10.00 Partly Cloudy FEW080 SCT095 61 26.1 26% 30.11 1017.8
09 11:56 Vrbl 6 10.00 Overcast FEW070 OVC095 60.1 27 60.1 35.1 28% 30.11 1018.0
09 10:56 Vrbl 3 10.00 Partly Cloudy SCT090 57.9 27 31% 30.12 1017.9
09 09:56 W 7 10.00 Fair CLR 55.9 27 33% 30.12 1017.8
09 08:56 W 3 10.00 Mostly Cloudy BKN085 50 28.9 44% 30.11 1018.0
09 07:56 SW 5 10.00 Overcast OVC080 48 28.9 48% 47 30.1 1017.6
09 06:56 SE 3 10.00 Fair CLR 41 32 70% 30.08 1017.4
09 05:56 S 7 10.00 Partly Cloudy SCT120 42.1 30.9 53.1 35.1 65% 38 30.07 1016.5
09 04:56 SE 3 10.00 Mostly Cloudy BKN110 37.9 32 79% 30.05 1016.6
09 03:56 Calm 10.00 Fair CLR 42.1 33.1 71% 30.04 1015.5
09 02:56 E 5 10.00 Fair CLR 41 33.1 73% 38 30.01 1014.8
09 01:56 SW 5 10.00 Fair CLR 48.9 33.1 55% 48 29.99 1013.3
09 00:56 SW 3 10.00 Fair CLR 50 34 54% 29.97 1012.6
08 23:56 Vrbl 5 10.00 Fair CLR 51.1 34 68 51.1 52% 29.96 1012.4
08 22:56 NW 8 10.00 Mostly Cloudy BKN100 55.9 36 47% 29.94 1011.7
08 21:56 NW 7 10.00 Partly Cloudy SCT100 59 35.1 41% 29.93 1011.4
08 20:56 NW 16 G 24 10.00 Mostly Cloudy BKN110 61 35.1 38% 29.91 1011.0
08 19:56 N 8 10.00 Overcast OVC100 63 34 34% 29.89 1010.2
08 18:56 Calm 10.00 Overcast OVC100 66.9 35.1 31% 29.88 1010.1
08 17:56 E 8 10.00 Fair CLR 68 32 69.1 63 26% 29.88 1010.2
08 16:56 NE 6 10.00 Fair CLR 66 36 33% 29.88 1010.3
08 15:56 Calm 10.00 A Few Clouds FEW090 68 33.1 27% 29.9 1010.8
08 14:56 E 3 10.00 Fair CLR 66.9 33.1 29% 29.92 1011.8
08 13:56 Vrbl 6 10.00 Fair CLR 66 37 34% 29.94 1012.2
08 12:56 NW 10 10.00 Fair CLR 66.9 37.9 35% 29.96 1012.6
08 11:56 NE 7 10.00 Fair CLR 63 37.9 63 36 40% 29.98 1013.5
08 10:56 Calm 10.00 Fair CLR 59 37.9 46% 30 1014.2
08 09:56 Calm 10.00 Fair CLR 55.9 39.9 55% 30.02 1014.6
08 08:56 Calm 10.00 Fair CLR 51.1 41 69% 30.02 1015.2
08 07:56 SE 6 10.00 Fair CLR 46.9 37.9 71% 45 30.03 1015.4
08 06:56 SE 8 10.00 Fair CLR 39.9 36 86% 35 30.02 1015.8
08 05:56 SE 5 10.00 Fair CLR 37 35.1 48 34 93% 34 30.01 1015.6
08 04:56 S 6 10.00 Fair CLR 41 35.1 79% 38 30.01 1014.6
08 03:56 SE 5 10.00 Fair CLR 39.9 36 86% 37 30 1014.7
08 02:56 NE 5 10.00 Fair CLR 39 37 93% 36 30 1014.7
08 01:56 SE 3 10.00 Partly Cloudy SCT075 42.1 39 89% 30 1014.4
08 00:56 SE 5 10.00 Fair CLR 43 39 86% 41 30 1014.3
07 23:56 SE 3 10.00 Partly Cloudy SCT110 46.9 41 64.9 46 80% 29.99 1014.0
07 22:56 S 7 10.00 Partly Cloudy FEW090 SCT110 50 41 71% 48 29.99 1013.8
07 21:56 SE 8 10.00 Mostly Cloudy SCT085 BKN120 55 42.1 62% 29.99 1013.5
07 20:56 W 5 10.00 A Few Clouds FEW120 55 36 49% 29.97 1013.0
07 19:56 N 9 10.00 Partly Cloudy SCT070 60.1 39 46% 29.95 1012.3
07 18:56 N 15 10.00 Partly Cloudy FEW090 SCT120 62.1 37.9 41% 29.94 1011.9
07 17:56 N 12 10.00 Mostly Cloudy BKN090 63 39 68 62.1 41% 29.92 1011.1
07 16:56 N 8 G 18 10.00 Partly Cloudy SCT120 66.9 37.9 35% 29.9 1010.4
07 15:56 N 12 10.00 A Few Clouds FEW110 64.9 37 36% 29.91 1011.0
07 14:56 N 14 G 25 10.00 Mostly Cloudy FEW075 BKN100 64.9 39 39% 29.92 1010.9
07 13:56 N 10 G 18 10.00 A Few Clouds FEW120 64.9 36 34% 29.92 1010.8
07 12:56 N 12 G 21 10.00 Partly Cloudy SCT100 64.9 36 34% 29.93 1011.0
07 11:56 N 14 10.00 Mostly Cloudy BKN085 63 39 63 46.9 41% 29.95 1011.1
Date Time (mdt) Wind (mph) Vis. (mi.) Weather Sky Cond. Air Dwpt Max. Min. Relative Humidity Wind Chill (°F) Heat Index (°F) altimeter (in) sea level (mb) 1 hr 3 hr 6 hr
6 hour
Temperature (ºF) Pressure Precipitation (in)